createdAt,value
2022-11-04T00:00:11.719Z,97106.72
2022-11-04T00:02:38.280Z,97111.06
2022-11-04T00:05:05.213Z,97118.16
2022-11-04T00:07:50.109Z,97131.06
2022-11-04T00:10:16.655Z,97139.63
2022-11-04T00:12:43.073Z,97139.66
2022-11-04T00:15:28.294Z,97152.53
2022-11-04T00:17:54.723Z,97159.75
2022-11-04T00:20:39.689Z,97155.28
2022-11-04T00:23:24.821Z,97163.22
2022-11-04T00:26:10.205Z,97154.34
2022-11-04T00:28:42.694Z,97147.56
2022-11-04T00:31:28.568Z,97162.94
2022-11-04T00:33:58.531Z,97172.63
2022-11-04T00:36:26.050Z,97180.25
2022-11-04T00:38:53.364Z,97180.63
2022-11-04T00:41:26.068Z,97193.69
2022-11-04T00:43:58.144Z,97200.47
2022-11-04T00:46:25.147Z,97195.63
2022-11-04T00:48:51.624Z,97196.31
2022-11-04T00:51:18.114Z,97198.66
2022-11-04T00:53:44.561Z,97203.78
2022-11-04T00:56:11.031Z,97193.78
2022-11-04T00:58:37.496Z,97201.69
2022-11-04T01:01:09.782Z,97215.25
2022-11-04T01:03:36.572Z,97217.34
2022-11-04T01:06:03.255Z,97225.53
2022-11-04T01:08:29.796Z,97218.88
2022-11-04T01:10:56.310Z,97220.25
2022-11-04T01:13:22.760Z,97224.28
2022-11-04T01:15:49.217Z,97227.88
2022-11-04T01:18:15.661Z,97232.97
2022-11-04T01:20:42.094Z,97226.72
2022-11-04T01:23:08.579Z,97218.81
2022-11-04T01:25:38.894Z,97218.94
2022-11-04T01:28:05.505Z,97227.91
2022-11-04T01:30:32.071Z,97231.03
2022-11-04T01:32:58.549Z,97231.63
2022-11-04T01:35:25.056Z,97241.63
2022-11-04T01:37:51.494Z,97235.66
2022-11-04T01:40:17.953Z,97237.84
2022-11-04T01:42:44.428Z,97243.38
2022-11-04T01:45:16.895Z,97254.78
2022-11-04T01:48:12.627Z,97252.38
2022-11-04T01:50:39.597Z,97262.00
2022-11-04T01:53:15.001Z,97261.34
2022-11-04T01:55:51.564Z,97249.91
2022-11-04T01:58:24.754Z,97252.25
2022-11-04T02:00:51.614Z,97256.28
2022-11-04T02:03:30.800Z,97248.78
2022-11-04T02:05:58.343Z,97252.97
2022-11-04T02:08:25.757Z,97258.22
2022-11-04T02:11:03.667Z,97262.72
2022-11-04T02:13:36.127Z,97259.19
2022-11-04T02:16:22.375Z,97265.78
2022-11-04T02:19:19.977Z,97259.72
2022-11-04T02:22:30.584Z,97257.22
2022-11-04T02:25:29.766Z,97263.88
2022-11-04T02:28:20.599Z,97265.31
2022-11-04T02:30:56.676Z,97263.06
2022-11-04T02:33:38.092Z,97259.06
2022-11-04T02:36:34.362Z,97261.22
2022-11-04T02:39:27.833Z,97267.41
2022-11-04T02:42:11.409Z,97264.94
2022-11-04T02:45:08.438Z,97267.69
2022-11-04T02:47:43.421Z,97271.38
2022-11-04T02:50:52.462Z,97264.13
2022-11-04T02:53:36.677Z,97252.72
2022-11-04T02:56:07.208Z,97268.34
2022-11-04T02:58:41.717Z,97265.94
2022-11-04T03:01:16.326Z,97259.41
2022-11-04T03:03:50.976Z,97262.06
2022-11-04T03:06:23.449Z,97266.94
2022-11-04T03:08:54.278Z,97265.28
2022-11-04T03:11:25.054Z,97263.03
2022-11-04T03:14:05.636Z,97270.75
2022-11-04T03:16:40.532Z,97274.94
2022-11-04T03:19:31.169Z,97265.59
2022-11-04T03:22:14.925Z,97265.38
2022-11-04T03:24:45.766Z,97268.00
2022-11-04T03:27:43.225Z,97272.28
2022-11-04T03:33:16.310Z,97280.47
2022-11-04T03:35:42.769Z,97288.19
2022-11-04T03:38:09.306Z,97291.78
2022-11-04T03:40:36.009Z,97287.28
2022-11-04T03:43:14.908Z,97283.91
2022-11-04T03:45:43.572Z,97281.91
2022-11-04T03:48:10.219Z,97280.94
2022-11-04T03:50:43.320Z,97283.91
2022-11-04T03:53:14.211Z,97290.94
2022-11-04T03:56:02.810Z,97287.25
2022-11-04T03:59:16.253Z,97290.53
2022-11-04T04:02:15.215Z,97281.75
2022-11-04T04:04:58.031Z,97280.94
2022-11-04T04:07:49.653Z,97284.63
2022-11-04T04:10:42.204Z,97288.69
2022-11-04T04:13:25.034Z,97285.25
2022-11-04T04:16:10.021Z,97291.44
2022-11-04T04:18:59.339Z,97293.25
2022-11-04T04:21:43.669Z,97298.50
2022-11-04T04:24:32.914Z,97296.38
2022-11-04T04:27:19.738Z,97300.91
2022-11-04T04:29:48.909Z,97318.78
2022-11-04T04:32:17.116Z,97321.91
2022-11-04T04:34:44.312Z,97321.53
2022-11-04T04:37:26.679Z,97323.88
2022-11-04T04:40:20.839Z,97336.91
2022-11-04T04:43:12.045Z,97338.81
2022-11-04T04:45:43.050Z,97344.06
2022-11-04T04:48:13.663Z,97330.34
2022-11-04T04:50:51.048Z,97341.56
2022-11-04T04:53:17.548Z,97331.78
2022-11-04T04:55:43.998Z,97333.56
2022-11-04T04:58:10.517Z,97333.78
2022-11-04T05:00:37.047Z,97335.34
2022-11-04T05:03:03.558Z,97347.66
2022-11-04T05:05:29.983Z,97345.13
2022-11-04T05:08:03.428Z,97341.44
2022-11-04T05:10:29.858Z,97343.72
2022-11-04T05:13:14.994Z,97333.34
2022-11-04T05:15:41.469Z,97325.00
2022-11-04T05:18:08.205Z,97330.13
2022-11-04T05:20:38.305Z,97333.47
2022-11-04T05:23:04.829Z,97337.03
2022-11-04T05:25:31.262Z,97332.13
2022-11-04T05:28:02.567Z,97329.06
2022-11-04T05:30:29.553Z,97325.38
2022-11-04T05:32:59.845Z,97318.19
2022-11-04T05:35:30.097Z,97303.59
2022-11-04T05:37:57.009Z,97315.19
2022-11-04T05:40:25.050Z,97312.78
2022-11-04T05:42:51.557Z,97308.00
2022-11-04T05:45:18.361Z,97314.09
2022-11-04T05:47:45.844Z,97330.63
2022-11-04T05:50:12.285Z,97330.50
2022-11-04T05:52:38.842Z,97342.19
2022-11-04T05:55:05.935Z,97348.47
2022-11-04T05:57:32.387Z,97347.16
2022-11-04T05:59:58.813Z,97341.88
2022-11-04T06:02:25.355Z,97354.59
2022-11-04T06:04:51.886Z,97356.63
2022-11-04T06:07:18.333Z,97357.91
2022-11-04T06:09:44.807Z,97354.97
2022-11-04T06:12:15.233Z,97361.97
2022-11-04T06:14:45.154Z,97367.84
2022-11-04T06:17:17.875Z,97362.81
2022-11-04T06:19:44.971Z,97372.50
2022-11-04T06:22:14.577Z,97373.78
2022-11-04T06:24:41.361Z,97374.25
2022-11-04T06:27:08.901Z,97369.47
2022-11-04T06:29:39.877Z,97370.75
2022-11-04T06:32:08.673Z,97379.97
2022-11-04T06:34:35.187Z,97391.41
2022-11-04T06:37:01.820Z,97387.47
2022-11-04T06:39:28.318Z,97391.94
2022-11-04T06:41:56.625Z,97392.28
2022-11-04T06:44:25.940Z,97388.44
2022-11-04T06:46:52.430Z,97388.03
2022-11-04T06:49:22.924Z,97384.28
2022-11-04T06:51:50.011Z,97383.06
2022-11-04T06:54:17.705Z,97390.59
2022-11-04T06:56:44.934Z,97396.13
2022-11-04T06:59:18.314Z,97398.66
2022-11-04T07:01:45.919Z,97403.78
2022-11-04T07:04:12.761Z,97413.50
2022-11-04T07:06:44.237Z,97419.97
2022-11-04T07:09:14.433Z,97430.09
2022-11-04T07:11:42.911Z,97431.00
2022-11-04T07:14:09.965Z,97427.50
2022-11-04T07:16:37.247Z,97424.41
2022-11-04T07:19:04.951Z,97429.09
2022-11-04T07:21:32.069Z,97432.84
2022-11-04T07:23:58.796Z,97438.13
2022-11-04T07:26:25.279Z,97442.81
2022-11-04T07:28:51.907Z,97436.19
2022-11-04T07:31:18.815Z,97434.19
2022-11-04T07:33:49.794Z,97448.84
2022-11-04T07:36:17.233Z,97441.34
2022-11-04T07:38:43.947Z,97445.44
2022-11-04T07:41:10.956Z,97448.50
2022-11-04T07:43:37.400Z,97449.69
2022-11-04T07:46:08.846Z,97457.34
2022-11-04T07:48:36.848Z,97464.84
2022-11-04T07:51:06.784Z,97457.53
2022-11-04T07:53:34.112Z,97462.00
2022-11-04T07:56:05.702Z,97461.16
2022-11-04T07:58:32.539Z,97458.44
2022-11-04T08:01:02.040Z,97465.84
2022-11-04T08:03:28.843Z,97458.72
2022-11-04T08:06:00.279Z,97467.19
2022-11-04T08:08:28.147Z,97468.03
2022-11-04T08:11:00.248Z,97477.13
2022-11-04T08:13:33.317Z,97472.94
2022-11-04T08:16:24.178Z,97469.13
2022-11-04T08:18:52.776Z,97468.72
2022-11-04T08:21:21.400Z,97475.00
2022-11-04T08:23:48.126Z,97468.97
2022-11-04T08:26:20.139Z,97468.75
2022-11-04T08:28:47.625Z,97468.78
2022-11-04T08:31:25.213Z,97467.47
2022-11-04T08:33:53.204Z,97461.75
2022-11-04T08:36:28.537Z,97455.91
2022-11-04T08:38:56.311Z,97453.28
2022-11-04T08:41:28.962Z,97453.91
2022-11-04T08:43:57.195Z,97459.31
2022-11-04T08:46:23.656Z,97467.78
2022-11-04T08:48:50.125Z,97462.81
2022-11-04T08:51:22.922Z,97453.28
2022-11-04T08:53:50.188Z,97455.66
2022-11-04T08:56:30.625Z,97460.06
2022-11-04T08:59:00.011Z,97450.56
2022-11-04T09:01:34.241Z,97460.16
2022-11-04T09:04:03.045Z,97463.81
2022-11-04T09:06:34.408Z,97460.94
2022-11-04T09:09:04.355Z,97451.88
2022-11-04T09:11:34.699Z,97458.44
2022-11-04T09:14:02.421Z,97453.38
2022-11-04T09:16:31.645Z,97451.78
2022-11-04T09:18:58.563Z,97459.63
2022-11-04T09:21:27.029Z,97448.56
2022-11-04T09:23:54.350Z,97451.13
2022-11-04T09:26:23.563Z,97447.00
2022-11-04T09:28:58.318Z,97448.16
2022-11-04T09:31:28.750Z,97442.63
2022-11-04T09:33:56.390Z,97448.53
2022-11-04T09:36:23.680Z,97441.22
2022-11-04T09:38:50.314Z,97454.91
2022-11-04T09:41:28.609Z,97446.59
2022-11-04T09:44:25.237Z,97442.06
2022-11-04T09:46:59.924Z,97442.81
2022-11-04T09:49:34.142Z,97435.56
2022-11-04T09:52:08.454Z,97433.34
2022-11-04T09:54:58.172Z,97442.38
2022-11-04T09:57:25.213Z,97445.31
2022-11-04T09:59:53.084Z,97448.81
2022-11-04T10:02:59.681Z,97443.41
2022-11-04T10:06:08.526Z,97446.03
2022-11-04T10:08:56.251Z,97442.94
2022-11-04T10:12:05.719Z,97443.25
2022-11-04T10:15:19.984Z,97445.13
2022-11-04T10:18:13.595Z,97458.03
2022-11-04T10:21:32.261Z,97450.44
2022-11-04T10:24:29.581Z,97453.66
2022-11-04T10:27:26.799Z,97445.72
2022-11-04T10:30:06.585Z,97454.72
2022-11-04T10:32:54.245Z,97462.13
2022-11-04T10:35:36.662Z,97466.31
2022-11-04T10:38:37.979Z,97462.28
2022-11-04T10:41:39.656Z,97461.19
2022-11-04T10:44:22.129Z,97464.38
2022-11-04T10:47:24.342Z,97462.03
2022-11-04T10:50:31.863Z,97466.19
2022-11-04T10:53:10.698Z,97469.38
2022-11-04T10:56:16.863Z,97463.97
2022-11-04T10:58:47.221Z,97473.84
2022-11-04T11:01:34.399Z,97477.97
2022-11-04T11:04:06.753Z,97481.06
2022-11-04T11:06:36.571Z,97482.72
2022-11-04T11:09:28.504Z,97484.63
2022-11-04T11:12:00.758Z,97490.03
2022-11-04T11:14:30.472Z,97496.59
2022-11-04T11:17:18.272Z,97490.47
2022-11-04T11:20:22.911Z,97495.50
2022-11-04T11:22:52.071Z,97493.03
2022-11-04T11:25:21.996Z,97493.69
2022-11-04T11:28:02.849Z,97495.91
2022-11-04T11:30:58.932Z,97489.56
2022-11-04T11:33:31.362Z,97487.03
2022-11-04T11:36:01.875Z,97487.72
2022-11-04T11:38:32.173Z,97490.06
2022-11-04T11:41:28.201Z,97490.63
2022-11-04T11:43:58.601Z,97487.16
2022-11-04T11:46:33.140Z,97484.53
2022-11-04T11:49:03.388Z,97481.47
2022-11-04T11:51:38.893Z,97486.88
2022-11-04T11:54:33.235Z,97478.41
2022-11-04T11:57:16.024Z,97483.69
2022-11-04T12:02:55.731Z,97482.69
2022-11-04T12:11:51.764Z,97482.28
2022-11-04T12:14:49.223Z,97486.06
2022-11-04T12:17:42.953Z,97485.06
2022-11-04T12:20:30.569Z,97488.41
2022-11-04T12:23:13.863Z,97495.09
2022-11-04T12:26:04.055Z,97494.81
2022-11-04T12:29:01.011Z,97488.53
2022-11-04T12:31:30.122Z,97495.22
2022-11-04T12:34:56.951Z,97484.06
2022-11-04T12:37:45.674Z,97484.59
2022-11-04T12:40:27.483Z,97489.28
2022-11-04T12:43:17.540Z,97496.25
2022-11-04T12:46:53.979Z,97501.81
2022-11-04T12:49:46.759Z,97501.22
2022-11-04T12:52:39.281Z,97504.28
2022-11-04T12:55:55.298Z,97504.13
2022-11-04T12:58:33.773Z,97507.22
2022-11-04T13:01:14.145Z,97512.94
2022-11-04T13:04:21.886Z,97515.41
2022-11-04T13:07:04.881Z,97513.06
2022-11-04T13:10:06.930Z,97510.72
2022-11-04T13:12:41.490Z,97512.38
2022-11-04T13:15:19.912Z,97519.06
2022-11-04T13:17:52.315Z,97525.59
2022-11-04T13:20:50.599Z,97527.25
2022-11-04T13:23:28.689Z,97523.38
2022-11-04T13:25:56.394Z,97530.72
2022-11-04T13:28:23.827Z,97524.34
2022-11-04T13:31:06.715Z,97534.50
2022-11-04T13:34:01.552Z,97540.19
2022-11-04T13:37:05.684Z,97532.31
2022-11-04T13:39:44.665Z,97530.66
2022-11-04T13:42:42.128Z,97529.81
2022-11-04T13:45:16.874Z,97541.34
2022-11-04T13:47:58.777Z,97543.53
2022-11-04T13:50:39.407Z,97544.94
2022-11-04T13:53:10.657Z,97550.50
2022-11-04T13:55:50.416Z,97550.78
2022-11-04T13:58:27.653Z,97549.94
2022-11-04T14:01:14.300Z,97551.75
2022-11-04T14:04:00.897Z,97553.56
2022-11-04T14:06:54.601Z,97565.94
2022-11-04T14:09:36.618Z,97563.00
2022-11-04T14:12:08.937Z,97572.91
2022-11-04T14:14:36.946Z,97572.34
2022-11-04T14:17:07.134Z,97573.88
2022-11-04T14:19:57.639Z,97575.84
2022-11-04T14:22:35.361Z,97583.63
2022-11-04T14:25:22.410Z,97582.78
2022-11-04T14:27:57.949Z,97583.97
2022-11-04T14:30:50.126Z,97592.88
2022-11-04T14:33:51.422Z,97591.38
2022-11-04T14:36:20.796Z,97584.38
2022-11-04T14:39:10.310Z,97592.28
2022-11-04T14:41:39.690Z,97596.34
2022-11-04T14:44:21.267Z,97594.13
2022-11-04T14:46:54.786Z,97597.44
2022-11-04T14:49:45.673Z,97600.53
2022-11-04T14:52:27.825Z,97610.53
2022-11-04T14:55:17.055Z,97616.94
2022-11-04T14:57:47.955Z,97624.97
2022-11-04T15:00:24.545Z,97631.06
2022-11-04T15:03:10.386Z,97635.31
2022-11-04T15:05:50.722Z,97649.97
2022-11-04T15:08:29.071Z,97643.84
2022-11-04T15:11:16.528Z,97645.06
2022-11-04T15:13:43.503Z,97649.13
2022-11-04T15:16:18.862Z,97655.19
2022-11-04T15:18:46.505Z,97656.06
2022-11-04T15:21:14.026Z,97666.91
2022-11-04T15:23:50.963Z,97670.78
2022-11-04T15:26:32.178Z,97670.78
2022-11-04T15:29:03.450Z,97677.97
2022-11-04T15:31:32.623Z,97679.66
2022-11-04T15:34:04.070Z,97678.38
2022-11-04T15:36:39.827Z,97684.22
2022-11-04T15:39:29.610Z,97695.09
2022-11-04T15:42:21.118Z,97697.00
2022-11-04T15:44:53.864Z,97702.34
2022-11-04T15:47:25.796Z,97703.56
2022-11-04T15:50:01.014Z,97707.81
2022-11-04T15:52:29.938Z,97704.50
2022-11-04T15:54:59.894Z,97702.31
2022-11-04T15:57:39.739Z,97705.91
2022-11-04T16:00:25.791Z,97703.66
2022-11-04T16:02:57.195Z,97705.19
2022-11-04T16:05:26.037Z,97712.84
2022-11-04T16:07:56.426Z,97721.78
2022-11-04T16:10:31.999Z,97720.69
2022-11-04T16:13:20.275Z,97725.97
2022-11-04T16:16:15.781Z,97724.03
2022-11-04T16:18:49.852Z,97738.94
2022-11-04T16:21:35.869Z,97737.53
2022-11-04T16:24:09.254Z,97742.63
2022-11-04T16:26:42.076Z,97751.22
2022-11-04T16:29:23.208Z,97755.16
2022-11-04T16:32:24.248Z,97754.31
2022-11-04T16:34:53.512Z,97758.13
2022-11-04T16:37:20.054Z,97762.41
2022-11-04T16:39:46.533Z,97761.19
2022-11-04T16:42:15.610Z,97764.09
2022-11-04T16:44:49.422Z,97769.16
2022-11-04T16:47:18.474Z,97770.56
2022-11-04T16:49:45.188Z,97767.69
2022-11-04T16:52:20.620Z,97768.91
2022-11-04T16:54:48.189Z,97782.97
2022-11-04T16:57:15.651Z,97784.19
2022-11-04T16:59:42.749Z,97789.31
2022-11-04T17:02:37.817Z,97777.28
2022-11-04T17:05:05.318Z,97790.84
2022-11-04T17:07:51.533Z,97784.25
2022-11-04T17:10:27.950Z,97790.94
2022-11-04T17:12:54.537Z,97789.13
2022-11-04T17:15:21.510Z,97795.31
2022-11-04T17:17:48.041Z,97796.16
2022-11-04T17:20:20.447Z,97802.88
2022-11-04T17:22:48.753Z,97803.06
2022-11-04T17:25:29.882Z,97807.16
2022-11-04T17:27:56.381Z,97803.81
2022-11-04T17:30:23.605Z,97801.41
2022-11-04T17:32:50.866Z,97802.97
2022-11-04T17:35:18.180Z,97810.72
2022-11-04T17:37:45.116Z,97817.06
2022-11-04T17:40:18.304Z,97822.00
2022-11-04T17:43:10.392Z,97821.78
2022-11-04T17:45:38.534Z,97827.38
2022-11-04T17:48:05.558Z,97828.00
2022-11-04T17:50:33.454Z,97835.88
2022-11-04T17:53:00.235Z,97837.59
2022-11-04T17:55:27.864Z,97850.59
2022-11-04T17:57:55.188Z,97848.34
2022-11-04T18:00:24.226Z,97855.75
2022-11-04T18:02:50.900Z,97853.59
2022-11-04T18:05:17.568Z,97861.13
2022-11-04T18:07:44.002Z,97860.06
2022-11-04T18:10:11.307Z,97867.22
2022-11-04T18:12:37.873Z,97862.56
2022-11-04T18:15:11.130Z,97866.63
2022-11-04T18:17:44.238Z,97861.72
2022-11-04T18:20:17.224Z,97869.34
2022-11-04T18:22:44.534Z,97870.56
2022-11-04T18:25:11.954Z,97868.69
2022-11-04T18:27:38.407Z,97879.66
2022-11-04T18:30:06.226Z,97884.94
2022-11-04T18:32:32.845Z,97882.53
2022-11-04T18:34:59.393Z,97890.16
2022-11-04T18:37:26.145Z,97892.56
2022-11-04T18:39:52.637Z,97894.63
2022-11-04T18:42:19.089Z,97891.16
2022-11-04T18:44:46.133Z,97889.72
2022-11-04T18:47:14.070Z,97897.16
2022-11-04T18:49:40.779Z,97893.56
2022-11-04T18:52:07.281Z,97898.72
2022-11-04T18:54:33.757Z,97905.13
2022-11-04T18:57:00.253Z,97903.81
2022-11-04T18:59:26.806Z,97909.09
2022-11-04T19:01:53.527Z,97907.69
2022-11-04T19:04:20.195Z,97910.78
2022-11-04T19:06:47.165Z,97912.59
2022-11-04T19:09:45.271Z,97912.22
2022-11-04T19:12:21.730Z,97916.13
2022-11-04T19:14:48.175Z,97917.81
2022-11-04T19:17:14.901Z,97914.31
2022-11-04T19:19:42.726Z,97932.44
2022-11-04T19:22:10.195Z,97929.31
2022-11-04T19:24:36.877Z,97925.38
2022-11-04T19:27:04.363Z,97920.22
2022-11-04T19:29:32.764Z,97929.06
2022-11-04T19:32:00.467Z,97930.47
2022-11-04T19:34:27.040Z,97936.09
2022-11-04T19:36:53.511Z,97941.56
2022-11-04T19:39:20.014Z,97945.78
2022-11-04T19:42:04.940Z,97952.16
2022-11-04T19:44:31.771Z,97960.25
2022-11-04T19:46:58.268Z,97967.50
2022-11-04T19:49:24.715Z,97965.72
2022-11-04T19:51:51.140Z,97974.06
2022-11-04T19:54:18.633Z,97974.28
2022-11-04T19:56:45.384Z,97971.09
2022-11-04T19:59:12.400Z,97975.16
2022-11-04T20:01:39.933Z,97980.94
2022-11-04T20:04:06.691Z,97975.59
2022-11-04T20:06:33.479Z,97977.94
2022-11-04T20:09:06.306Z,97991.06
2022-11-04T20:11:58.338Z,97993.59
2022-11-04T20:14:26.377Z,97996.63
2022-11-04T20:16:53.166Z,98000.31
2022-11-04T20:19:22.600Z,98000.78
2022-11-04T20:21:49.844Z,98005.19
2022-11-04T20:24:16.280Z,98010.69
2022-11-04T20:26:44.004Z,98007.91
2022-11-04T20:29:10.659Z,98013.13
2022-11-04T20:31:39.463Z,98013.47
2022-11-04T20:34:08.332Z,98012.22
2022-11-04T20:36:36.580Z,98008.41
2022-11-04T20:39:11.807Z,98011.34
2022-11-04T20:41:38.424Z,98019.22
2022-11-04T20:44:05.725Z,98025.09
2022-11-04T20:46:34.602Z,98022.06
2022-11-04T20:49:03.118Z,98025.84
2022-11-04T20:51:37.090Z,98025.63
2022-11-04T20:54:07.002Z,98033.94
2022-11-04T20:56:38.260Z,98039.28
2022-11-04T20:59:06.382Z,98039.19
2022-11-04T21:01:36.723Z,98051.69
2022-11-04T21:04:14.797Z,98046.25
2022-11-04T21:06:41.940Z,98053.69
2022-11-04T21:09:12.469Z,98059.38
2022-11-04T21:11:39.787Z,98063.19
2022-11-04T21:14:14.496Z,98063.06
2022-11-04T21:16:41.207Z,98069.81
2022-11-04T21:19:08.071Z,98074.41
2022-11-04T21:21:35.426Z,98083.03
2022-11-04T21:24:05.885Z,98087.44
2022-11-04T21:26:35.740Z,98094.69
2022-11-04T21:29:07.063Z,98093.31
2022-11-04T21:31:36.365Z,98093.44
2022-11-04T21:34:03.985Z,98103.41
2022-11-04T21:36:31.353Z,98099.19
2022-11-04T21:38:58.954Z,98112.44
2022-11-04T21:41:29.260Z,98112.44
2022-11-04T21:43:57.465Z,98108.84
2022-11-04T21:46:27.375Z,98114.97
2022-11-04T21:48:55.199Z,98112.00
2022-11-04T21:51:25.329Z,98119.38
2022-11-04T21:53:51.862Z,98115.38
2022-11-04T21:56:24.982Z,98121.47
2022-11-04T21:58:53.028Z,98116.97
2022-11-04T22:01:24.634Z,98129.03
2022-11-04T22:03:55.854Z,98125.25
2022-11-04T22:06:22.834Z,98128.09
2022-11-04T22:08:54.144Z,98118.75
2022-11-04T22:11:25.381Z,98128.19
2022-11-04T22:14:00.916Z,98128.41
2022-11-04T22:16:31.784Z,98133.34
2022-11-04T22:19:01.820Z,98134.47
2022-11-04T22:21:30.161Z,98132.69
2022-11-04T22:23:57.369Z,98143.31
2022-11-04T22:26:28.399Z,98141.53
2022-11-04T22:28:56.216Z,98141.22
2022-11-04T22:31:30.353Z,98145.81
2022-11-04T22:33:57.894Z,98145.19
2022-11-04T22:36:24.365Z,98148.75
2022-11-04T22:38:51.053Z,98148.00
2022-11-04T22:41:30.467Z,98147.63
2022-11-04T22:43:57.905Z,98149.81
2022-11-04T22:46:31.945Z,98147.66
2022-11-04T22:49:01.448Z,98157.44
2022-11-04T22:51:29.044Z,98158.50
2022-11-04T22:53:59.996Z,98157.78
2022-11-04T22:56:30.065Z,98163.81
2022-11-04T22:58:56.509Z,98160.78
2022-11-04T23:01:23.113Z,98162.38
2022-11-04T23:03:53.245Z,98160.91
2022-11-04T23:06:20.162Z,98164.06
2022-11-04T23:08:46.683Z,98167.56
2022-11-04T23:11:39.465Z,98172.63
2022-11-04T23:14:25.118Z,98175.06
2022-11-04T23:17:10.866Z,98171.59
2022-11-04T23:19:38.891Z,98181.19
2022-11-04T23:22:24.871Z,98174.19
2022-11-04T23:25:06.647Z,98181.44
2022-11-04T23:28:01.679Z,98184.25
2022-11-04T23:30:32.055Z,98189.81
2022-11-04T23:33:02.891Z,98185.09
2022-11-04T23:35:57.331Z,98189.34
2022-11-04T23:38:25.461Z,98187.56
2022-11-04T23:41:15.452Z,98188.84
2022-11-04T23:43:41.950Z,98182.47
2022-11-04T23:46:27.458Z,98188.22
2022-11-04T23:49:26.125Z,98185.00
2022-11-04T23:52:11.407Z,98184.06
2022-11-04T23:54:56.577Z,98186.47
2022-11-04T23:57:41.843Z,98185.84
